createdAt,value
2023-01-26T00:02:19.242Z,101497.47
2023-01-26T00:04:45.704Z,101496.72
2023-01-26T00:07:12.330Z,101498.38
2023-01-26T00:09:38.868Z,101502.31
2023-01-26T00:12:05.474Z,101497.28
2023-01-26T00:14:49.799Z,101487.13
2023-01-26T00:17:25.727Z,101483.00
2023-01-26T00:19:58.880Z,101496.47
2023-01-26T00:22:26.302Z,101486.28
2023-01-26T00:24:52.860Z,101479.81
2023-01-26T00:27:19.320Z,101481.91
2023-01-26T00:29:45.829Z,101468.47
2023-01-26T00:32:13.020Z,101467.19
2023-01-26T00:34:41.653Z,101471.31
2023-01-26T00:37:13.693Z,101463.97
2023-01-26T00:39:40.252Z,101459.13
2023-01-26T00:42:07.045Z,101461.06
2023-01-26T00:44:35.129Z,101455.25
2023-01-26T00:47:01.646Z,101454.72
2023-01-26T00:49:28.187Z,101466.06
2023-01-26T00:51:54.754Z,101463.56
2023-01-26T00:54:21.296Z,101459.66
2023-01-26T00:56:48.355Z,101455.16
2023-01-26T00:59:15.246Z,101456.53
2023-01-26T01:01:45.723Z,101464.94
2023-01-26T01:04:13.767Z,101457.47
2023-01-26T01:06:40.507Z,101461.91
2023-01-26T01:09:07.262Z,101458.19
2023-01-26T01:11:33.872Z,101460.19
2023-01-26T01:14:00.432Z,101462.22
2023-01-26T01:16:28.655Z,101454.44
2023-01-26T01:18:58.300Z,101455.00
2023-01-26T01:21:25.636Z,101441.66
2023-01-26T01:23:52.824Z,101444.88
2023-01-26T01:26:19.527Z,101441.59
2023-01-26T01:28:46.180Z,101441.59
2023-01-26T01:31:14.120Z,101443.59
2023-01-26T01:33:41.150Z,101442.41
2023-01-26T01:36:10.125Z,101443.22
2023-01-26T01:38:36.717Z,101445.31
2023-01-26T01:41:03.598Z,101446.03
2023-01-26T01:43:30.399Z,101447.22
2023-01-26T01:45:59.278Z,101454.34
2023-01-26T01:48:35.347Z,101447.03
2023-01-26T01:51:08.065Z,101445.75
2023-01-26T01:53:37.678Z,101444.00
2023-01-26T01:56:06.631Z,101450.13
2023-01-26T01:58:35.784Z,101446.50
2023-01-26T02:01:02.419Z,101445.75
2023-01-26T02:03:30.683Z,101446.19
2023-01-26T02:06:06.988Z,101444.09
2023-01-26T02:08:38.321Z,101446.09
2023-01-26T02:11:07.901Z,101444.81
2023-01-26T02:13:35.008Z,101441.19
2023-01-26T02:16:03.386Z,101452.13
2023-01-26T02:18:33.027Z,101444.38
2023-01-26T02:21:01.368Z,101443.91
2023-01-26T02:23:46.624Z,101437.81
2023-01-26T02:26:15.637Z,101433.31
2023-01-26T02:28:43.846Z,101438.34
2023-01-26T02:31:11.137Z,101431.56
2023-01-26T02:33:37.791Z,101426.81
2023-01-26T02:36:06.087Z,101425.00
2023-01-26T02:38:41.195Z,101428.75
2023-01-26T02:41:10.383Z,101423.09
2023-01-26T02:43:37.190Z,101423.09
2023-01-26T02:46:04.141Z,101416.88
2023-01-26T02:48:51.560Z,101422.66
2023-01-26T02:51:18.182Z,101425.19
2023-01-26T02:53:45.958Z,101421.59
2023-01-26T02:56:12.579Z,101424.41
2023-01-26T02:58:41.630Z,101425.28
2023-01-26T03:01:09.456Z,101421.97
2023-01-26T03:03:46.356Z,101421.13
2023-01-26T03:06:15.202Z,101419.69
2023-01-26T03:08:41.991Z,101413.47
2023-01-26T03:11:08.786Z,101403.94
2023-01-26T03:13:35.801Z,101403.38
2023-01-26T03:16:06.973Z,101414.13
2023-01-26T03:18:55.029Z,101409.66
2023-01-26T03:21:41.959Z,101402.03
2023-01-26T03:24:30.980Z,101393.47
2023-01-26T03:27:17.715Z,101389.78
2023-01-26T03:29:45.622Z,101389.78
2023-01-26T03:32:12.326Z,101386.50
2023-01-26T03:34:43.175Z,101393.63
2023-01-26T03:37:09.841Z,101395.25
2023-01-26T03:40:02.736Z,101389.09
2023-01-26T03:42:48.412Z,101382.25
2023-01-26T03:45:35.309Z,101377.41
2023-01-26T03:48:24.400Z,101376.69
2023-01-26T03:51:10.534Z,101375.34
2023-01-26T03:53:55.708Z,101366.22
2023-01-26T03:56:24.596Z,101373.81
2023-01-26T03:58:56.813Z,101375.72
2023-01-26T04:01:27.803Z,101372.53
2023-01-26T04:04:15.630Z,101366.13
2023-01-26T04:07:03.238Z,101356.38
2023-01-26T04:09:30.395Z,101362.09
2023-01-26T04:11:58.627Z,101370.69
2023-01-26T04:14:49.326Z,101373.97
2023-01-26T04:17:39.553Z,101379.28
2023-01-26T04:20:25.431Z,101363.69
2023-01-26T04:22:52.142Z,101361.69
2023-01-26T04:25:19.814Z,101358.03
2023-01-26T04:27:46.489Z,101366.78
2023-01-26T04:30:15.424Z,101361.38
2023-01-26T04:32:42.179Z,101362.09
2023-01-26T04:35:08.969Z,101360.81
2023-01-26T04:37:36.525Z,101354.06
2023-01-26T04:40:04.340Z,101351.97
2023-01-26T04:42:32.514Z,101351.25
2023-01-26T04:45:01.014Z,101338.28
2023-01-26T04:47:29.499Z,101337.31
2023-01-26T04:49:56.695Z,101339.59
2023-01-26T04:52:24.014Z,101328.91
2023-01-26T04:54:50.887Z,101326.91
2023-01-26T04:57:20.458Z,101325.22
2023-01-26T04:59:49.427Z,101324.22
2023-01-26T05:02:16.270Z,101317.91
2023-01-26T05:04:42.849Z,101324.69
2023-01-26T05:07:09.311Z,101322.41
2023-01-26T05:09:36.111Z,101318.88
2023-01-26T05:12:33.705Z,101319.06
2023-01-26T05:15:12.047Z,101315.50
2023-01-26T05:17:51.751Z,101315.50
2023-01-26T05:20:36.229Z,101303.47
2023-01-26T05:23:13.914Z,101314.69
2023-01-26T05:26:00.630Z,101309.03
2023-01-26T05:28:28.318Z,101301.72
2023-01-26T05:30:54.849Z,101311.09
2023-01-26T05:33:22.455Z,101308.28
2023-01-26T05:35:50.198Z,101297.25
2023-01-26T05:38:16.873Z,101312.13
2023-01-26T05:40:43.565Z,101315.34
2023-01-26T05:43:10.930Z,101312.69
2023-01-26T05:45:44.256Z,101319.59
2023-01-26T05:48:12.173Z,101325.38
2023-01-26T05:50:38.869Z,101324.63
2023-01-26T05:53:13.237Z,101319.69
2023-01-26T05:55:40.121Z,101324.34
2023-01-26T05:58:06.639Z,101324.16
2023-01-26T06:00:33.412Z,101329.47
2023-01-26T06:03:06.858Z,101330.34
2023-01-26T06:05:33.456Z,101327.91
2023-01-26T06:08:04.675Z,101328.00
2023-01-26T06:10:38.303Z,101328.28
2023-01-26T06:13:17.616Z,101325.63
2023-01-26T06:15:52.309Z,101343.50
2023-01-26T06:18:23.083Z,101339.88
2023-01-26T06:20:53.219Z,101341.16
2023-01-26T06:23:19.897Z,101339.41
2023-01-26T06:25:47.297Z,101343.56
2023-01-26T06:28:13.852Z,101354.81
2023-01-26T06:30:40.600Z,101359.66
2023-01-26T06:33:10.865Z,101359.13
2023-01-26T06:35:38.092Z,101363.78
2023-01-26T06:38:09.709Z,101362.84
2023-01-26T06:40:36.239Z,101361.53
2023-01-26T06:43:03.596Z,101352.78
2023-01-26T06:45:32.095Z,101351.69
2023-01-26T06:47:59.612Z,101357.63
2023-01-26T06:50:31.443Z,101356.97
2023-01-26T06:52:59.696Z,101352.22
2023-01-26T06:55:51.555Z,101356.59
2023-01-26T06:58:36.347Z,101360.53
2023-01-26T07:01:37.212Z,101351.16
2023-01-26T07:04:03.753Z,101361.59
2023-01-26T07:06:30.283Z,101361.47
2023-01-26T07:08:57.765Z,101359.66
2023-01-26T07:11:25.643Z,101359.16
2023-01-26T07:13:52.234Z,101371.28
2023-01-26T07:16:19.250Z,101365.81
2023-01-26T07:18:46.005Z,101359.72
2023-01-26T07:21:14.629Z,101356.56
2023-01-26T07:23:41.235Z,101364.59
2023-01-26T07:26:08.169Z,101367.66
2023-01-26T07:28:34.689Z,101370.75
2023-01-26T07:31:02.108Z,101366.63
2023-01-26T07:33:28.867Z,101363.34
2023-01-26T07:35:56.156Z,101364.88
2023-01-26T07:38:23.304Z,101369.72
2023-01-26T07:40:50.295Z,101373.34
2023-01-26T07:43:17.040Z,101377.28
2023-01-26T07:45:53.875Z,101373.34
2023-01-26T07:48:21.677Z,101374.63
2023-01-26T07:50:48.718Z,101371.81
2023-01-26T07:53:19.838Z,101379.94
2023-01-26T07:55:48.341Z,101374.63
2023-01-26T07:58:15.262Z,101373.94
2023-01-26T08:00:41.864Z,101380.88
2023-01-26T08:03:08.528Z,101379.94
2023-01-26T08:05:37.139Z,101380.47
2023-01-26T08:08:04.400Z,101379.00
2023-01-26T08:10:34.019Z,101377.00
2023-01-26T08:13:00.749Z,101378.63
2023-01-26T08:15:27.996Z,101379.28
2023-01-26T08:17:55.346Z,101376.63
2023-01-26T08:20:22.376Z,101383.03
2023-01-26T08:22:49.171Z,101374.63
2023-01-26T08:25:15.933Z,101389.69
2023-01-26T08:27:42.723Z,101382.88
2023-01-26T08:30:09.877Z,101384.78
2023-01-26T08:32:36.704Z,101384.59
2023-01-26T08:35:03.323Z,101385.25
2023-01-26T08:37:29.885Z,101394.22
2023-01-26T08:39:58.869Z,101395.09
2023-01-26T08:42:25.486Z,101400.16
2023-01-26T08:44:52.589Z,101394.94
2023-01-26T08:47:19.229Z,101411.78
2023-01-26T08:49:45.968Z,101402.38
2023-01-26T08:52:12.830Z,101401.56
2023-01-26T08:54:40.808Z,101398.75
2023-01-26T08:57:07.731Z,101398.88
2023-01-26T08:59:34.336Z,101394.56
2023-01-26T09:02:01.065Z,101402.88
2023-01-26T09:04:27.910Z,101402.88
2023-01-26T09:06:54.433Z,101404.03
2023-01-26T09:09:21.073Z,101404.50
2023-01-26T09:11:47.598Z,101402.50
2023-01-26T09:14:14.210Z,101410.53
2023-01-26T09:16:41.213Z,101401.50
2023-01-26T09:19:07.777Z,101407.00
2023-01-26T09:21:34.625Z,101403.81
2023-01-26T09:24:01.373Z,101401.72
2023-01-26T09:26:29.229Z,101403.72
2023-01-26T09:28:56.123Z,101406.91
2023-01-26T09:31:22.839Z,101405.72
2023-01-26T09:33:50.563Z,101402.75
2023-01-26T09:36:19.432Z,101405.81
2023-01-26T09:38:46.347Z,101414.94
2023-01-26T09:41:31.662Z,101412.69
2023-01-26T09:44:02.263Z,101408.22
2023-01-26T09:46:37.925Z,101408.41
2023-01-26T09:49:13.207Z,101403.22
2023-01-26T09:51:42.740Z,101406.50
2023-01-26T09:54:28.014Z,101406.97
2023-01-26T09:56:55.591Z,101405.25
2023-01-26T09:59:25.082Z,101401.56
2023-01-26T10:01:56.903Z,101398.38
2023-01-26T10:04:36.671Z,101400.84
2023-01-26T10:07:05.638Z,101390.63
2023-01-26T10:09:51.798Z,101385.75
2023-01-26T10:12:21.399Z,101389.03
2023-01-26T10:15:16.303Z,101387.50
2023-01-26T10:17:44.486Z,101380.53
2023-01-26T10:20:20.432Z,101380.66
2023-01-26T10:22:58.416Z,101373.47
2023-01-26T10:25:46.961Z,101376.69
2023-01-26T10:28:15.736Z,101380.34
2023-01-26T10:30:43.547Z,101378.25
2023-01-26T10:33:33.779Z,101368.84
2023-01-26T10:36:01.184Z,101380.66
2023-01-26T10:38:28.826Z,101377.72
2023-01-26T10:40:56.814Z,101373.88
2023-01-26T10:43:24.492Z,101372.88
2023-01-26T10:45:51.361Z,101368.22
2023-01-26T10:48:19.941Z,101364.00
2023-01-26T10:50:47.435Z,101365.91
2023-01-26T10:53:15.569Z,101358.09
2023-01-26T10:55:43.773Z,101360.53
2023-01-26T10:58:34.094Z,101356.84
2023-01-26T11:01:01.066Z,101365.78
2023-01-26T11:03:28.545Z,101364.13
2023-01-26T11:06:07.450Z,101356.72
2023-01-26T11:08:35.910Z,101357.91
2023-01-26T11:11:13.827Z,101355.00
2023-01-26T11:13:40.423Z,101357.75
2023-01-26T11:16:14.404Z,101350.38
2023-01-26T11:18:55.403Z,101344.88
2023-01-26T11:21:29.133Z,101349.19
2023-01-26T11:23:58.606Z,101349.19
2023-01-26T11:26:25.885Z,101344.69
2023-01-26T11:29:20.527Z,101339.56
2023-01-26T11:31:51.698Z,101337.22
2023-01-26T11:34:36.996Z,101337.84
2023-01-26T11:37:23.708Z,101341.56
2023-01-26T11:40:01.572Z,101335.94
2023-01-26T11:42:31.135Z,101332.91
2023-01-26T11:45:21.826Z,101332.91
2023-01-26T11:47:48.462Z,101317.03
2023-01-26T11:50:33.517Z,101317.03
2023-01-26T11:53:00.076Z,101309.38
2023-01-26T11:55:59.100Z,101305.34
2023-01-26T11:58:25.738Z,101314.91
2023-01-26T12:00:56.063Z,101304.16
2023-01-26T12:03:41.500Z,101296.13
2023-01-26T12:06:14.577Z,101300.78
2023-01-26T12:09:00.368Z,101296.31
2023-01-26T12:11:27.339Z,101297.13
2023-01-26T12:14:02.891Z,101303.69
2023-01-26T12:16:42.985Z,101302.06
2023-01-26T12:19:29.519Z,101293.47
2023-01-26T12:22:08.527Z,101291.41
2023-01-26T12:25:08.306Z,101293.84
2023-01-26T12:27:35.389Z,101286.47
2023-01-26T12:30:23.425Z,101287.81
2023-01-26T12:32:50.409Z,101280.34
2023-01-26T12:35:25.437Z,101275.06
2023-01-26T12:38:18.629Z,101277.06
2023-01-26T12:40:51.999Z,101273.25
2023-01-26T12:43:18.904Z,101273.97
2023-01-26T12:45:47.777Z,101265.72
2023-01-26T12:48:20.320Z,101262.34
2023-01-26T12:50:49.847Z,101258.50
2023-01-26T12:53:32.164Z,101260.13
2023-01-26T12:56:21.877Z,101253.13
2023-01-26T12:58:50.828Z,101258.16
2023-01-26T13:01:19.048Z,101256.25
2023-01-26T13:03:52.060Z,101245.16
2023-01-26T13:06:20.416Z,101251.19
2023-01-26T13:08:51.723Z,101258.47
2023-01-26T13:11:50.663Z,101252.44
2023-01-26T13:14:32.415Z,101248.78
2023-01-26T13:17:27.359Z,101245.00
2023-01-26T13:19:59.589Z,101254.97
2023-01-26T13:22:26.387Z,101246.50
2023-01-26T13:24:56.074Z,101251.47
2023-01-26T13:27:46.831Z,101249.91
2023-01-26T13:30:26.142Z,101251.28
2023-01-26T13:33:09.149Z,101251.69
2023-01-26T13:35:35.783Z,101250.44
2023-01-26T13:38:07.150Z,101253.81
2023-01-26T13:40:35.168Z,101255.63
2023-01-26T13:43:01.729Z,101250.09
2023-01-26T13:45:58.758Z,101254.81
2023-01-26T13:48:47.943Z,101257.75
2023-01-26T13:51:19.788Z,101252.16
2023-01-26T13:54:06.851Z,101258.06
2023-01-26T13:56:34.673Z,101255.81
2023-01-26T13:59:09.923Z,101258.63
2023-01-26T14:01:50.023Z,101262.66
2023-01-26T14:04:21.090Z,101258.72
2023-01-26T14:07:15.670Z,101267.78
2023-01-26T14:09:46.781Z,101268.13
2023-01-26T14:12:25.216Z,101276.72
2023-01-26T14:14:54.723Z,101264.50
2023-01-26T14:17:32.115Z,101274.34
2023-01-26T14:20:00.422Z,101268.22
2023-01-26T14:22:28.069Z,101269.59
2023-01-26T14:24:54.986Z,101275.09
2023-01-26T14:27:38.109Z,101270.50
2023-01-26T14:30:25.023Z,101266.59
2023-01-26T14:33:17.914Z,101278.72
2023-01-26T14:35:56.283Z,101276.53
2023-01-26T14:38:24.070Z,101279.81
2023-01-26T14:40:55.175Z,101269.59
2023-01-26T14:43:22.246Z,101278.00
2023-01-26T14:45:58.329Z,101286.75
2023-01-26T14:48:29.365Z,101279.66
2023-01-26T14:50:56.081Z,101288.22
2023-01-26T14:53:24.216Z,101294.25
2023-01-26T14:55:52.260Z,101291.88
2023-01-26T14:58:24.583Z,101299.53
2023-01-26T15:00:51.243Z,101294.13
2023-01-26T15:03:27.041Z,101300.63
2023-01-26T15:06:17.335Z,101305.56
2023-01-26T15:09:06.191Z,101310.75
2023-01-26T15:11:53.131Z,101302.63
2023-01-26T15:14:36.813Z,101308.75
2023-01-26T15:17:04.090Z,101306.94
2023-01-26T15:19:32.404Z,101308.75
2023-01-26T15:21:59.859Z,101313.13
2023-01-26T15:24:26.646Z,101315.22
2023-01-26T15:26:53.191Z,101308.63
2023-01-26T15:29:25.216Z,101307.91
2023-01-26T15:31:56.179Z,101302.72
2023-01-26T15:34:31.226Z,101303.34
2023-01-26T15:36:58.608Z,101304.84
2023-01-26T15:39:25.192Z,101305.81
2023-01-26T15:42:01.657Z,101301.63
2023-01-26T15:44:28.387Z,101283.19
2023-01-26T15:46:56.583Z,101287.03
2023-01-26T15:49:25.864Z,101284.56
2023-01-26T15:51:54.066Z,101293.53
2023-01-26T15:54:20.752Z,101285.94
2023-01-26T15:56:47.226Z,101281.66
2023-01-26T15:59:14.006Z,101275.00
2023-01-26T16:01:40.657Z,101279.66
2023-01-26T16:04:09.653Z,101283.28
2023-01-26T16:06:36.299Z,101285.59
2023-01-26T16:09:02.941Z,101281.28
2023-01-26T16:11:31.114Z,101289.22
2023-01-26T16:14:03.599Z,101287.69
2023-01-26T16:16:31.573Z,101286.94
2023-01-26T16:18:58.274Z,101281.03
2023-01-26T16:21:26.059Z,101294.50
2023-01-26T16:23:52.723Z,101285.66
2023-01-26T16:26:19.621Z,101284.94
2023-01-26T16:28:48.948Z,101289.84
2023-01-26T16:31:20.337Z,101288.47
2023-01-26T16:33:47.374Z,101292.78
2023-01-26T16:36:14.744Z,101294.78
2023-01-26T16:38:44.179Z,101286.56
2023-01-26T16:41:15.399Z,101296.13
2023-01-26T16:43:42.308Z,101294.97
2023-01-26T16:46:09.363Z,101296.97
2023-01-26T16:48:37.834Z,101295.38
2023-01-26T16:51:13.301Z,101295.13
2023-01-26T16:53:42.050Z,101292.22
2023-01-26T16:56:10.385Z,101281.75
2023-01-26T16:58:36.909Z,101287.13
2023-01-26T17:01:03.550Z,101283.94
2023-01-26T17:03:30.181Z,101289.31
2023-01-26T17:05:58.096Z,101295.88
2023-01-26T17:08:24.746Z,101288.56
2023-01-26T17:11:01.606Z,101291.69
2023-01-26T17:13:29.327Z,101295.88
2023-01-26T17:15:56.531Z,101296.59
2023-01-26T17:18:23.138Z,101294.97
2023-01-26T17:20:51.166Z,101293.97
2023-01-26T17:23:17.912Z,101292.97
2023-01-26T17:25:44.568Z,101296.16
2023-01-26T17:28:11.082Z,101304.00
2023-01-26T17:30:37.620Z,101308.63
2023-01-26T17:33:04.116Z,101299.00
2023-01-26T17:35:30.587Z,101308.00
2023-01-26T17:37:57.151Z,101317.59
2023-01-26T17:40:23.795Z,101315.75
2023-01-26T17:42:50.494Z,101310.75
2023-01-26T17:45:17.437Z,101311.94
2023-01-26T17:47:44.269Z,101315.22
2023-01-26T17:50:11.295Z,101313.28
2023-01-26T17:52:37.950Z,101318.78
2023-01-26T17:55:07.273Z,101327.22
2023-01-26T17:57:34.168Z,101320.47
2023-01-26T18:00:01.003Z,101320.59
2023-01-26T18:02:27.685Z,101328.72
2023-01-26T18:04:54.207Z,101326.88
2023-01-26T18:07:20.746Z,101324.28
2023-01-26T18:09:48.813Z,101324.38
2023-01-26T18:12:15.419Z,101322.16
2023-01-26T18:14:41.951Z,101322.50
2023-01-26T18:17:08.491Z,101319.81
2023-01-26T18:19:35.226Z,101318.34
2023-01-26T18:22:02.007Z,101319.66
2023-01-26T18:24:28.524Z,101330.69
2023-01-26T18:26:55.099Z,101328.47
2023-01-26T18:29:21.560Z,101316.72
2023-01-26T18:31:48.297Z,101324.69
2023-01-26T18:34:15.194Z,101321.78
2023-01-26T18:39:31.566Z,101324.72
2023-01-26T18:41:58.097Z,101319.50
2023-01-26T18:44:27.236Z,101318.88
2023-01-26T18:46:54.049Z,101319.13
2023-01-26T18:49:22.883Z,101322.25
2023-01-26T18:51:49.748Z,101315.03
2023-01-26T18:54:16.984Z,101326.22
2023-01-26T18:56:44.084Z,101311.53
2023-01-26T18:59:10.832Z,101313.06
2023-01-26T19:01:37.940Z,101317.25
2023-01-26T19:04:07.793Z,101326.84
2023-01-26T19:06:35.368Z,101322.38
2023-01-26T19:09:06.556Z,101329.56
2023-01-26T19:11:35.596Z,101319.69
2023-01-26T19:14:02.784Z,101327.72
2023-01-26T19:16:29.783Z,101312.34
2023-01-26T19:18:58.640Z,101316.25
2023-01-26T19:21:27.500Z,101313.88
2023-01-26T19:23:55.166Z,101324.78
2023-01-26T19:26:23.616Z,101316.75
2023-01-26T19:28:51.134Z,101319.28
2023-01-26T19:31:19.337Z,101319.66
2023-01-26T19:33:50.519Z,101318.00
2023-01-26T19:36:17.251Z,101319.03
2023-01-26T19:38:45.547Z,101316.75
2023-01-26T19:41:12.495Z,101322.69
2023-01-26T19:43:39.242Z,101322.69
2023-01-26T19:46:08.298Z,101328.31
2023-01-26T19:48:35.121Z,101325.69
2023-01-26T19:51:03.407Z,101315.09
2023-01-26T19:53:31.931Z,101317.75
2023-01-26T19:56:00.381Z,101323.03
2023-01-26T19:58:31.320Z,101324.50
2023-01-26T20:01:08.301Z,101320.31
2023-01-26T20:03:35.100Z,101324.41
2023-01-26T20:06:01.914Z,101316.00
2023-01-26T20:08:29.892Z,101317.13
2023-01-26T20:11:06.238Z,101311.66
2023-01-26T20:13:33.924Z,101317.03
2023-01-26T20:16:00.678Z,101312.13
2023-01-26T20:18:27.629Z,101315.75
2023-01-26T20:20:55.909Z,101317.75
2023-01-26T20:23:23.527Z,101314.13
2023-01-26T20:25:51.543Z,101311.75
2023-01-26T20:28:18.834Z,101321.31
2023-01-26T20:30:45.548Z,101322.78
2023-01-26T20:33:12.382Z,101323.22
2023-01-26T20:35:40.455Z,101312.47
2023-01-26T20:38:07.082Z,101301.72
2023-01-26T20:40:33.646Z,101310.00
2023-01-26T20:43:00.131Z,101312.66
2023-01-26T20:45:26.692Z,101302.06
2023-01-26T20:47:53.557Z,101303.00
2023-01-26T20:50:20.522Z,101295.72
2023-01-26T20:52:47.362Z,101295.31
2023-01-26T20:55:13.895Z,101293.97
2023-01-26T20:57:40.356Z,101286.03
2023-01-26T21:00:07.397Z,101285.03
2023-01-26T21:02:34.022Z,101287.69
2023-01-26T21:05:00.755Z,101286.66
2023-01-26T21:07:28.612Z,101289.59
2023-01-26T21:09:55.808Z,101286.75
2023-01-26T21:12:22.696Z,101284.72
2023-01-26T21:14:49.918Z,101280.94
2023-01-26T21:17:17.468Z,101278.91
2023-01-26T21:19:45.631Z,101279.00
2023-01-26T21:22:12.147Z,101284.75
2023-01-26T21:24:39.355Z,101279.91
2023-01-26T21:27:06.776Z,101278.38
2023-01-26T21:29:33.298Z,101275.97
2023-01-26T21:31:59.856Z,101274.25
2023-01-26T21:34:26.514Z,101269.22
2023-01-26T21:36:53.052Z,101264.56
2023-01-26T21:39:22.256Z,101265.56
2023-01-26T21:41:59.207Z,101264.41
2023-01-26T21:44:28.227Z,101269.06
2023-01-26T21:46:56.049Z,101265.22
2023-01-26T21:49:24.261Z,101262.84
2023-01-26T21:52:10.008Z,101260.56
2023-01-26T21:54:37.952Z,101250.78
2023-01-26T21:57:26.470Z,101251.44
2023-01-26T21:59:53.158Z,101255.75
2023-01-26T22:02:19.740Z,101243.94
2023-01-26T22:04:47.134Z,101244.19
2023-01-26T22:07:13.724Z,101245.28
2023-01-26T22:09:41.108Z,101247.31
2023-01-26T22:12:07.657Z,101246.94
2023-01-26T22:14:34.201Z,101244.31
2023-01-26T22:17:00.896Z,101232.97
2023-01-26T22:19:28.260Z,101232.25
2023-01-26T22:21:54.885Z,101233.69
2023-01-26T22:24:21.584Z,101233.69
2023-01-26T22:26:48.289Z,101231.78
2023-01-26T22:29:14.859Z,101232.41
2023-01-26T22:31:41.978Z,101239.19
2023-01-26T22:34:10.469Z,101235.53
2023-01-26T22:36:37.869Z,101235.53
2023-01-26T22:39:04.363Z,101234.06
2023-01-26T22:41:31.066Z,101234.19
2023-01-26T22:43:59.328Z,101232.00
2023-01-26T22:46:27.077Z,101231.47
2023-01-26T22:48:53.827Z,101232.53
2023-01-26T22:51:21.420Z,101229.25
2023-01-26T22:53:48.646Z,101226.72
2023-01-26T22:56:15.143Z,101218.25
2023-01-26T22:58:55.808Z,101222.97
2023-01-26T23:01:24.066Z,101211.72
2023-01-26T23:03:51.667Z,101210.59
2023-01-26T23:06:18.243Z,101216.38
2023-01-26T23:08:44.757Z,101210.66
2023-01-26T23:11:11.242Z,101218.97
2023-01-26T23:13:38.202Z,101224.63
2023-01-26T23:16:05.700Z,101217.81
2023-01-26T23:18:32.583Z,101217.50
2023-01-26T23:20:59.537Z,101223.81
2023-01-26T23:23:26.941Z,101227.28
2023-01-26T23:25:54.071Z,101226.56
2023-01-26T23:28:28.214Z,101226.19
2023-01-26T23:30:56.157Z,101218.91
2023-01-26T23:33:23.791Z,101216.25
2023-01-26T23:35:50.557Z,101219.69
2023-01-26T23:38:17.388Z,101207.19
2023-01-26T23:40:45.499Z,101208.09
2023-01-26T23:43:17.049Z,101205.53
2023-01-26T23:45:45.096Z,101209.88
2023-01-26T23:48:11.873Z,101212.16
2023-01-26T23:50:38.536Z,101210.88
2023-01-26T23:53:05.191Z,101219.78
2023-01-26T23:55:31.865Z,101217.06
2023-01-26T23:57:58.495Z,101219.34
